JBU381 KBOS-KJFK
Flight info
| Callsign | JBU381 |
|---|---|
| Flight time | N/A |
| Altitude | 24000 |
| Route | SSOXS7 SSOXS Q167 ZJAAY ARICE JAMIE |
| Aircraft | A320/M-SDE3FGHIRWY/LB1 |
Departure
| Time | N/A |
|---|---|
| Airport | Boston Logan International Airport (KBOS) |
Arrival
| Time | 2026-05-08 01:11 |
|---|---|
| Airport | John F. Kennedy International Airport (KJFK) |
| Time | Latitude | Longitude | Altitude | Speed | Heading |
|---|---|---|---|---|---|
| 2026-05-08 00:41 | 40.88497 | -72.34925 | 33832 ft | 376 kts | 219° |
| 2026-05-08 00:41 | 40.86069 | -72.36315 | 32841 ft | 391 kts | 203° |
| 2026-05-08 00:42 | 40.83279 | -72.36632 | 31592 ft | 417 kts | 186° |
| 2026-05-08 00:42 | 40.80361 | -72.35767 | 30217 ft | 447 kts | 169° |
| 2026-05-08 00:42 | 40.77565 | -72.33709 | 28671 ft | 475 kts | 152° |
| 2026-05-08 00:42 | 40.75178 | -72.30556 | 27177 ft | 498 kts | 133° |
| 2026-05-08 00:43 | 40.73499 | -72.26544 | 26134 ft | 504 kts | 116° |
| 2026-05-08 00:43 | 40.72533 | -72.22083 | 24700 ft | 509 kts | 107° |
| 2026-05-08 00:43 | 40.71772 | -72.17529 | 23413 ft | 506 kts | 107° |
| 2026-05-08 00:43 | 40.71038 | -72.13031 | 22117 ft | 498 kts | 107° |
| 2026-05-08 00:44 | 40.70330 | -72.08611 | 20927 ft | 489 kts | 107° |
| 2026-05-08 00:44 | 40.69640 | -72.04234 | 20289 ft | 485 kts | 107° |
| 2026-05-08 00:44 | 40.68962 | -71.99876 | 20033 ft | 484 kts | 107° |
| 2026-05-08 00:44 | 40.68298 | -71.95589 | 19833 ft | 482 kts | 107° |
| 2026-05-08 00:45 | 40.67629 | -71.91254 | 19877 ft | 482 kts | 107° |
| 2026-05-08 00:45 | 40.66967 | -71.86921 | 19873 ft | 484 kts | 107° |
| 2026-05-08 00:45 | 40.66550 | -71.82500 | 19859 ft | 491 kts | 93° |
| 2026-05-08 00:45 | 40.67007 | -71.78021 | 19863 ft | 498 kts | 75° |
| 2026-05-08 00:46 | 40.68359 | -71.73827 | 19864 ft | 498 kts | 58° |
| 2026-05-08 00:46 | 40.70496 | -71.70271 | 19862 ft | 493 kts | 40° |
| 2026-05-08 00:46 | 40.73233 | -71.67635 | 19885 ft | 484 kts | 22° |
| 2026-05-08 00:46 | 40.76334 | -71.66110 | 19856 ft | 469 kts | 4° |
| 2026-05-08 00:47 | 40.79515 | -71.65805 | 19867 ft | 451 kts | 347° |
| 2026-05-08 00:47 | 40.82495 | -71.66685 | 19862 ft | 430 kts | 329° |
| 2026-05-08 00:47 | 40.85012 | -71.68608 | 19869 ft | 410 kts | 312° |
| 2026-05-08 00:47 | 40.86927 | -71.71286 | 19873 ft | 394 kts | 297° |
| 2026-05-08 00:48 | 40.88168 | -71.74429 | 19874 ft | 380 kts | 283° |
| 2026-05-08 00:48 | 40.88717 | -71.77793 | 19877 ft | 371 kts | 270° |
| 2026-05-08 00:48 | 40.88866 | -71.81152 | 19876 ft | 371 kts | 269° |
| 2026-05-08 00:48 | 40.89014 | -71.84551 | 19884 ft | 371 kts | 269° |
| 2026-05-08 00:49 | 40.89167 | -71.87958 | 19881 ft | 371 kts | 269° |
| 2026-05-08 00:49 | 40.89322 | -71.91357 | 19904 ft | 371 kts | 269° |
| 2026-05-08 00:49 | 40.89477 | -71.94762 | 19885 ft | 371 kts | 269° |
| 2026-05-08 00:49 | 40.89632 | -71.98174 | 19886 ft | 372 kts | 269° |
| 2026-05-08 00:50 | 40.89786 | -72.01587 | 19887 ft | 372 kts | 269° |
| 2026-05-08 00:50 | 40.89939 | -72.04993 | 19886 ft | 372 kts | 269° |
| 2026-05-08 00:50 | 40.90089 | -72.08403 | 19886 ft | 372 kts | 269° |
| 2026-05-08 00:50 | 40.90234 | -72.11814 | 19788 ft | 372 kts | 269° |
| 2026-05-08 00:51 | 40.90376 | -72.15216 | 19504 ft | 368 kts | 269° |
| 2026-05-08 00:51 | 40.90529 | -72.18505 | 19113 ft | 345 kts | 269° |
| 2026-05-08 00:51 | 40.90690 | -72.21544 | 18918 ft | 322 kts | 268° |
| 2026-05-08 00:51 | 40.90822 | -72.24433 | 18781 ft | 308 kts | 268° |
| 2026-05-08 00:52 | 40.90933 | -72.27200 | 18677 ft | 295 kts | 267° |
| 2026-05-08 00:52 | 40.91035 | -72.29844 | 18514 ft | 279 kts | 267° |
| 2026-05-08 00:52 | 40.91134 | -72.32363 | 18018 ft | 270 kts | 267° |
| 2026-05-08 00:52 | 40.91228 | -72.34824 | 17346 ft | 266 kts | 267° |
| 2026-05-08 00:53 | 40.91321 | -72.37258 | 16680 ft | 264 kts | 268° |
| 2026-05-08 00:53 | 40.91415 | -72.39662 | 16021 ft | 261 kts | 268° |
| 2026-05-08 00:53 | 40.91507 | -72.42048 | 15384 ft | 258 kts | 268° |
| 2026-05-08 00:53 | 40.91600 | -72.44408 | 14757 ft | 256 kts | 269° |
| 2026-05-08 00:54 | 40.91700 | -72.46749 | 14321 ft | 255 kts | 269° |
| 2026-05-08 00:54 | 40.91804 | -72.49095 | 13914 ft | 255 kts | 269° |
| 2026-05-08 00:54 | 40.91902 | -72.51452 | 13487 ft | 258 kts | 269° |
| 2026-05-08 00:54 | 40.91992 | -72.53815 | 13149 ft | 255 kts | 269° |
| 2026-05-08 00:55 | 40.92083 | -72.56132 | 13093 ft | 253 kts | 270° |
| 2026-05-08 00:55 | 40.92184 | -72.58466 | 13008 ft | 255 kts | 270° |
| 2026-05-08 00:55 | 40.92283 | -72.60782 | 12914 ft | 256 kts | 270° |
| 2026-05-08 00:55 | 40.92383 | -72.63169 | 12791 ft | 257 kts | 271° |
| 2026-05-08 00:56 | 40.92477 | -72.65504 | 12673 ft | 257 kts | 271° |
| 2026-05-08 00:56 | 40.92569 | -72.67869 | 12567 ft | 258 kts | 271° |
| 2026-05-08 00:56 | 40.92660 | -72.70233 | 12454 ft | 258 kts | 271° |
| 2026-05-08 00:56 | 40.92750 | -72.72601 | 12341 ft | 258 kts | 271° |
| 2026-05-08 00:57 | 40.92839 | -72.74968 | 12228 ft | 258 kts | 271° |
| 2026-05-08 00:57 | 40.92851 | -72.77333 | 12101 ft | 257 kts | 262° |
| 2026-05-08 00:57 | 40.92323 | -72.79583 | 11997 ft | 259 kts | 244° |
| 2026-05-08 00:57 | 40.91254 | -72.81482 | 12006 ft | 265 kts | 228° |
| 2026-05-08 00:58 | 40.89798 | -72.82972 | 11989 ft | 268 kts | 221° |
| 2026-05-08 00:58 | 40.88297 | -72.84423 | 12000 ft | 267 kts | 221° |
| 2026-05-08 00:58 | 40.86779 | -72.85892 | 11431 ft | 276 kts | 221° |
| 2026-05-08 00:58 | 40.85230 | -72.87367 | 11173 ft | 271 kts | 221° |
| 2026-05-08 00:59 | 40.83707 | -72.88809 | 10857 ft | 269 kts | 221° |
| 2026-05-08 00:59 | 40.82189 | -72.90249 | 10483 ft | 269 kts | 221° |
| 2026-05-08 00:59 | 40.80668 | -72.91701 | 10148 ft | 271 kts | 221° |
| 2026-05-08 00:59 | 40.79157 | -72.93154 | 9896 ft | 273 kts | 221° |
| 2026-05-08 01:00 | 40.77621 | -72.94635 | 9635 ft | 274 kts | 221° |
| 2026-05-08 01:00 | 40.76076 | -72.96118 | 9386 ft | 275 kts | 221° |
| 2026-05-08 01:00 | 40.74535 | -72.97610 | 9142 ft | 274 kts | 224° |
| 2026-05-08 01:00 | 40.73367 | -72.99511 | 8899 ft | 264 kts | 250° |
| 2026-05-08 01:01 | 40.72953 | -73.01827 | 8551 ft | 259 kts | 265° |
| 2026-05-08 01:01 | 40.72778 | -73.04187 | 8169 ft | 259 kts | 267° |
| 2026-05-08 01:01 | 40.72625 | -73.06552 | 7785 ft | 259 kts | 267° |
| 2026-05-08 01:01 | 40.72472 | -73.08932 | 7360 ft | 261 kts | 267° |
| 2026-05-08 01:02 | 40.72314 | -73.11324 | 6980 ft | 262 kts | 267° |
| 2026-05-08 01:02 | 40.72155 | -73.13719 | 6635 ft | 263 kts | 267° |
| 2026-05-08 01:02 | 40.71994 | -73.16117 | 6276 ft | 263 kts | 267° |
| 2026-05-08 01:02 | 40.71896 | -73.18515 | 5906 ft | 261 kts | 276° |
| 2026-05-08 01:03 | 40.72143 | -73.20878 | 5533 ft | 260 kts | 282° |
| 2026-05-08 01:03 | 40.72459 | -73.23220 | 5190 ft | 259 kts | 282° |
| 2026-05-08 01:03 | 40.72773 | -73.25558 | 4847 ft | 259 kts | 282° |
| 2026-05-08 01:03 | 40.73084 | -73.27894 | 4499 ft | 258 kts | 282° |
| 2026-05-08 01:04 | 40.73391 | -73.30220 | 4161 ft | 257 kts | 282° |
| 2026-05-08 01:04 | 40.73714 | -73.32530 | 4019 ft | 257 kts | 282° |
| 2026-05-08 01:04 | 40.74061 | -73.34857 | 4025 ft | 259 kts | 283° |
| 2026-05-08 01:04 | 40.74407 | -73.37182 | 4025 ft | 259 kts | 282° |
| 2026-05-08 01:05 | 40.74757 | -73.39512 | 4003 ft | 260 kts | 283° |
| 2026-05-08 01:05 | 40.75100 | -73.41849 | 3769 ft | 259 kts | 282° |
| 2026-05-08 01:05 | 40.75436 | -73.44177 | 3534 ft | 258 kts | 282° |
| 2026-05-08 01:05 | 40.75766 | -73.46471 | 3311 ft | 258 kts | 282° |
| 2026-05-08 01:06 | 40.76097 | -73.48795 | 3089 ft | 257 kts | 282° |
| 2026-05-08 01:06 | 40.76428 | -73.51107 | 2848 ft | 256 kts | 282° |
| 2026-05-08 01:06 | 40.76758 | -73.53415 | 2618 ft | 256 kts | 282° |
| 2026-05-08 01:06 | 40.77087 | -73.55711 | 2389 ft | 254 kts | 282° |
| 2026-05-08 01:07 | 40.77409 | -73.57968 | 2150 ft | 245 kts | 282° |
| 2026-05-08 01:07 | 40.77655 | -73.60108 | 2020 ft | 226 kts | 270° |
| 2026-05-08 01:07 | 40.77238 | -73.61990 | 2011 ft | 207 kts | 243° |
| 2026-05-08 01:07 | 40.76501 | -73.63588 | 2035 ft | 202 kts | 239° |
| 2026-05-08 01:08 | 40.75750 | -73.65113 | 2036 ft | 199 kts | 238° |
| 2026-05-08 01:08 | 40.74991 | -73.66604 | 2015 ft | 186 kts | 237° |
| 2026-05-08 01:08 | 40.74213 | -73.67866 | 2012 ft | 173 kts | 219° |
| 2026-05-08 01:08 | 40.73197 | -73.68706 | 1952 ft | 171 kts | 212° |
| 2026-05-08 01:09 | 40.72179 | -73.69499 | 1776 ft | 170 kts | 212° |
| 2026-05-08 01:09 | 40.71162 | -73.70290 | 1567 ft | 170 kts | 212° |
| 2026-05-08 01:09 | 40.70157 | -73.71074 | 1343 ft | 169 kts | 213° |
| 2026-05-08 01:09 | 40.69158 | -73.71858 | 1140 ft | 165 kts | 212° |
| 2026-05-08 01:10 | 40.68174 | -73.72630 | 907 ft | 164 kts | 211° |
| 2026-05-08 01:10 | 40.67199 | -73.73398 | 680 ft | 161 kts | 211° |
| 2026-05-08 01:10 | 40.66253 | -73.74137 | 468 ft | 155 kts | 210° |
| 2026-05-08 01:10 | 40.65334 | -73.74861 | 262 ft | 151 kts | 209° |
| 2026-05-08 01:11 | 40.64440 | -73.75565 | 66 ft | 149 kts | 210° |
| 2026-05-08 01:11 | 40.63632 | -73.76182 | 22 ft | 86 kts | 208° |
| 2026-05-08 01:11 | 40.63308 | -73.76482 | 22 ft | 44 kts | 231° |
| 2026-05-08 01:11 | 40.63252 | -73.76742 | 20 ft | 29 kts | 294° |
| 2026-05-08 01:12 | 40.63349 | -73.76963 | 21 ft | 28 kts | 301° |
| 2026-05-08 01:12 | 40.63446 | -73.77178 | 26 ft | 27 kts | 301° |
| 2026-05-08 01:12 | 40.63543 | -73.77392 | 23 ft | 27 kts | 301° |
| 2026-05-08 01:12 | 40.63639 | -73.77570 | 21 ft | 18 kts | 338° |
| 2026-05-08 01:13 | 40.63760 | -73.77509 | 18 ft | 21 kts | 30° |
| 2026-05-08 01:13 | 40.63887 | -73.77413 | 21 ft | 21 kts | 29° |
| 2026-05-08 01:13 | 40.64012 | -73.77316 | 22 ft | 21 kts | 32° |
| 2026-05-08 01:13 | 40.64134 | -73.77219 | 26 ft | 20 kts | 30° |
| 2026-05-08 01:14 | 40.64260 | -73.77122 | 23 ft | 22 kts | 30° |
| 2026-05-08 01:14 | 40.64394 | -73.77025 | 22 ft | 18 kts | 11° |
| 2026-05-08 01:14 | 40.64437 | -73.77127 | 23 ft | 13 kts | 280° |
| 2026-05-08 01:14 | 40.64444 | -73.77187 | 23 ft | 0 kts | 278° |
| 2026-05-08 01:15 | 40.64445 | -73.77198 | 25 ft | 3 kts | 276° |
| 2026-05-08 01:15 | 40.64447 | -73.77214 | 25 ft | 0 kts | 276° |